Time;durP1;ratioP1;P1;durP2;ratioP2;P2;SDS_P1;SDS_P2;PMS_P1;PMS_P2;Temp;Humidity;BMP_temperature;BMP_pressure;BME280_temperature;BME280_humidity;BME280_pressure;Samples;Min_cycle;Max_cycle;Signal;HPM_P1;HPM_P2
2023/03/28 00:04:04;;;;;;;1.40;1.30;;;;;;;-1.69;97.65;100005.81;10423724;28;20048;-79
2023/03/28 00:09:08;;;;;;;1.13;1.02;;;;;;;-1.68;97.53;100012.03;10442295;28;20523;-77
2023/03/28 00:14:12;;;;;;;1.65;1.42;;;;;;;-1.73;97.50;100014.53;10443035;28;20049;-80
2023/03/28 00:19:16;;;;;;;1.40;1.30;;;;;;;-1.74;97.48;100019.06;10441724;28;20056;-79
2023/03/28 00:24:22;;;;;;;1.50;1.40;;;;;;;-1.72;97.40;100016.19;10442250;28;20449;-78
2023/03/28 00:29:24;;;;;;;2.20;1.50;;;;;;;-1.72;97.52;100025.09;10441723;28;20049;-79
2023/03/28 00:34:27;;;;;;;1.45;1.20;;;;;;;-1.72;97.39;100018.88;10440463;28;20045;-79
2023/03/28 00:39:30;;;;;;;1.73;1.58;;;;;;;-1.68;97.26;100022.78;10438334;28;20508;-79
2023/03/28 00:44:52;;;;;;;1.48;1.38;;;;;;;-1.69;97.56;100026.50;10435566;28;20048;-77
2023/03/28 00:49:58;;;;;;;1.75;1.52;;;;;;;-1.66;97.75;100028.75;10448659;28;20080;-79
2023/03/28 00:55:04;;;;;;;2.28;1.80;;;;;;;-1.64;97.45;100035.56;10434327;28;20421;-78
2023/03/28 01:00:11;;;;;;;2.75;2.10;;;;;;;-1.64;97.74;100046.34;10423452;28;20425;-78
2023/03/28 01:05:13;;;;;;;3.28;2.20;;;;;;;-1.64;97.60;100045.50;10432725;28;20073;-79
2023/03/28 01:10:16;;;;;;;3.03;2.13;;;;;;;-1.63;97.41;100039.91;10439671;28;20046;-79
2023/03/28 01:15:18;;;;;;;2.40;1.98;;;;;;;-1.61;97.66;100034.31;10413388;28;20057;-79
2023/03/28 01:20:35;;;;;;;4.07;2.20;;;;;;;-1.57;97.60;100040.91;10445473;28;20052;-79
2023/03/28 01:25:56;;;;;;;2.72;2.17;;;;;;;-1.59;97.65;100054.56;10426632;28;20049;-79
2023/03/28 01:31:23;;;;;;;4.00;2.78;;;;;;;-1.61;97.67;100059.34;10432437;28;20045;-78
2023/03/28 01:36:44;;;;;;;4.90;2.90;;;;;;;-1.62;98.00;100060.38;10442878;28;20049;-78
2023/03/28 01:42:15;;;;;;;4.07;2.80;;;;;;;-1.61;97.72;100066.59;10430433;28;20056;-79
2023/03/28 01:47:38;;;;;;;3.60;2.67;;;;;;;-1.59;98.01;100059.13;10444139;28;20048;-79
2023/03/28 01:53:08;;;;;;;4.22;2.83;;;;;;;-1.54;97.64;100070.91;10418271;28;20064;-78
2023/03/28 01:58:22;;;;;;;6.35;3.45;;;;;;;-1.52;97.87;100074.22;10456058;28;20056;-78
2023/03/28 02:03:33;;;;;;;5.05;3.22;;;;;;;-1.54;98.48;100083.53;10409273;28;20042;-78
2023/03/28 02:08:42;;;;;;;3.53;2.70;;;;;;;-1.54;97.99;100089.75;10436076;28;20493;-78
2023/03/28 02:14:21;;;;;;;5.65;3.47;;;;;;;-1.55;98.14;100089.97;10440789;28;20056;-78
2023/03/28 02:19:24;;;;;;;7.50;3.03;;;;;;;-1.50;98.06;100100.06;10428474;28;20135;-78
2023/03/28 02:24:57;;;;;;;8.07;4.47;;;;;;;-1.48;98.03;100098.81;10427968;28;20046;-77
2023/03/28 02:30:29;;;;;;;7.50;4.00;;;;;;;-1.45;98.57;100106.44;10438543;28;20551;-77
2023/03/28 02:35:59;;;;;;;8.82;4.25;;;;;;;-1.40;98.68;100108.47;10444394;28;20508;-77
2023/03/28 02:41:39;;;;;;;9.75;4.65;;;;;;;-1.39;98.31;100113.66;10432185;28;20057;-79
2023/03/28 02:47:04;;;;;;;8.68;4.82;;;;;;;-1.40;98.22;100113.88;10418010;28;20046;-77
2023/03/28 02:52:24;;;;;;;8.80;4.85;;;;;;;-1.42;98.28;100103.31;10441387;28;20053;-80
2023/03/28 02:57:33;;;;;;;6.68;4.03;;;;;;;-1.35;98.50;100111.38;10416179;28;20044;-79
2023/03/28 03:02:39;;;;;;;10.13;4.32;;;;;;;-1.34;98.52;100111.16;10415369;28;20033;-79
2023/03/28 03:07:41;;;;;;;9.50;4.40;;;;;;;-1.32;98.60;100122.53;10444905;28;20038;-79
2023/03/28 03:12:44;;;;;;;9.60;4.68;;;;;;;-1.32;98.79;100119.00;10440041;28;20045;-79
2023/03/28 03:17:46;;;;;;;9.23;4.60;;;;;;;-1.25;98.41;100130.53;10419220;28;20515;-78
2023/03/28 03:22:49;;;;;;;9.23;4.90;;;;;;;-1.25;98.81;100135.94;10431242;28;20045;-79
2023/03/28 03:27:51;;;;;;;11.23;5.47;;;;;;;-1.24;98.53;100137.56;10438273;28;20056;-78
2023/03/28 03:32:55;;;;;;;10.55;5.90;;;;;;;-1.24;98.54;100132.19;10441888;28;20413;-79
2023/03/28 03:38:00;;;;;;;11.55;6.28;;;;;;;-1.23;99.20;100139.22;10435831;28;20045;-78
2023/03/28 03:43:02;;;;;;;13.77;6.88;;;;;;;-1.21;98.42;100137.16;10438429;28;20040;-77
2023/03/28 03:48:04;;;;;;;13.25;6.00;;;;;;;-1.22;98.82;100140.88;10423868;28;20045;-78
2023/03/28 03:53:06;;;;;;;13.60;6.85;;;;;;;-1.22;98.85;100140.88;10417051;28;20049;-77
2023/03/28 03:58:14;;;;;;;15.68;6.70;;;;;;;-1.17;98.85;100154.53;10426047;28;20045;-77
2023/03/28 04:03:18;;;;;;;16.33;6.65;;;;;;;-1.17;98.91;100154.53;10439161;28;20045;-78
2023/03/28 04:08:24;;;;;;;15.80;6.97;;;;;;;-1.15;99.01;100163.22;10426008;28;20045;-78
2023/03/28 04:13:26;;;;;;;16.10;7.30;;;;;;;-1.09;98.76;100167.72;10417036;28;20773;-78
2023/03/28 04:18:34;;;;;;;18.43;8.13;;;;;;;-1.06;98.71;100183.44;10394307;28;20042;-78
2023/03/28 04:23:37;;;;;;;16.52;8.02;;;;;;;-1.04;98.85;100178.69;10429376;28;20045;-78
2023/03/28 04:28:44;;;;;;;15.50;8.20;;;;;;;-1.06;98.58;100180.75;10411385;28;20053;-78
2023/03/28 04:33:48;;;;;;;16.70;8.30;;;;;;;-1.03;98.27;100177.66;10436057;28;20041;-77
2023/03/28 04:38:57;;;;;;;13.93;7.82;;;;;;;-1.00;98.50;100179.06;10422923;28;20049;-80
2023/03/28 04:44:21;;;;;;;;;;;;;;;-0.96;98.60;100188.38;10426203;28;20056;-79
2023/03/28 04:49:30;;;;;;;15.70;7.47;;;;;;;-0.89;98.21;100182.91;10425696;28;19921;-78
2023/03/28 04:54:33;;;;;;;17.73;8.20;;;;;;;-0.72;97.99;100201.03;10433478;28;20037;-78
2023/03/28 04:59:43;;;;;;;15.75;8.65;;;;;;;-0.74;98.11;100203.13;10447457;28;20037;-77
2023/03/28 05:04:53;;;;;;;14.32;8.55;;;;;;;-0.74;98.12;100203.13;10436617;28;20037;-79
2023/03/28 05:09:55;;;;;;;17.83;9.15;;;;;;;-0.68;97.76;100199.56;10496308;28;20044;-82
2023/03/28 05:14:57;;;;;;;15.98;8.25;;;;;;;-0.69;97.90;100210.56;10522248;28;20037;-79
2023/03/28 05:20:00;;;;;;;16.25;8.80;;;;;;;-0.65;97.38;100233.34;10512288;28;20651;-78
2023/03/28 05:25:09;;;;;;;17.75;8.80;;;;;;;-0.63;97.28;100231.25;10496871;28;20064;-79
2023/03/28 05:30:14;;;;;;;19.55;8.98;;;;;;;-0.53;97.04;100228.88;10498498;28;20037;-78
2023/03/28 05:35:17;;;;;;;16.58;8.57;;;;;;;-0.47;96.69;100241.50;10499272;28;20047;-78
2023/03/28 05:40:20;;;;;;;20.45;9.48;;;;;;;-0.50;96.37;100236.53;10498417;28;20047;-78
2023/03/28 05:45:24;;;;;;;16.88;9.02;;;;;;;-0.47;96.44;100256.84;10498225;28;20523;-78
2023/03/28 05:50:29;;;;;;;18.25;9.32;;;;;;;-0.48;95.80;100268.66;10532882;28;20056;-79
2023/03/28 05:55:36;;;;;;;20.23;10.07;;;;;;;-0.37;95.56;100286.81;10514290;28;20052;-79
2023/03/28 06:00:38;;;;;;;22.67;10.93;;;;;;;-0.27;96.01;100300.66;10514223;28;20040;-79
2023/03/28 06:05:41;;;;;;;17.77;10.02;;;;;;;-0.30;95.45;100298.41;10514133;28;20040;-79
2023/03/28 06:10:59;;;;;;;20.63;10.27;;;;;;;-0.34;95.85;100306.09;10513947;28;20053;-79
2023/03/28 06:16:04;;;;;;;20.00;10.63;;;;;;;-0.35;95.10;100303.59;10514557;28;20036;-78
2023/03/28 06:21:10;;;;;;;21.88;10.73;;;;;;;-0.35;95.53;100323.31;10513554;28;20045;-78
2023/03/28 06:26:12;;;;;;;21.17;11.35;;;;;;;-0.42;95.18;100319.81;10513445;28;20036;-80
2023/03/28 06:31:18;;;;;;;24.60;11.55;;;;;;;-0.36;95.14;100329.72;10489706;28;20040;-80
2023/03/28 06:36:20;;;;;;;24.98;12.20;;;;;;;-0.33;94.97;100315.00;10471844;28;20033;-79
2023/03/28 06:41:23;;;;;;;25.20;12.45;;;;;;;-0.36;95.11;100312.72;10471424;28;20040;-79
2023/03/28 06:46:25;;;;;;;23.02;11.75;;;;;;;-0.29;94.62;100318.09;10493630;28;20044;-79
2023/03/28 06:51:28;;;;;;;23.60;11.40;;;;;;;-0.19;95.10;100319.25;10500394;28;20048;-78
2023/03/28 06:56:30;;;;;;;27.90;13.68;;;;;;;-0.20;94.57;100320.28;10528954;28;20047;-79
2023/03/28 07:01:34;;;;;;;26.98;12.75;;;;;;;-0.13;94.77;100317.56;10473120;28;20052;-80
2023/03/28 07:06:45;;;;;;;28.40;12.93;;;;;;;-0.01;94.38;100323.88;10470539;28;20041;-80
2023/03/28 07:11:48;;;;;;;32.15;13.32;;;;;;;-0.03;94.31;100331.38;10469185;28;20056;-80
2023/03/28 07:16:52;;;;;;;25.20;11.68;;;;;;;-0.01;93.82;100337.38;10469927;28;20049;-80
2023/03/28 07:21:54;;;;;;;26.67;13.05;;;;;;;0.14;93.74;100328.94;10508421;28;20040;-80
2023/03/28 07:26:58;;;;;;;30.30;13.38;;;;;;;0.17;93.77;100332.03;10510759;28;20048;-79
2023/03/28 07:32:00;;;;;;;25.17;12.00;;;;;;;0.18;93.23;100331.00;10510919;28;20045;-80
2023/03/28 07:37:04;;;;;;;23.08;11.57;;;;;;;0.10;93.51;100342.06;10510660;28;20412;-80
2023/03/28 07:42:21;;;;;;;23.38;10.95;;;;;;;0.05;93.31;100349.16;10496186;28;20050;-80
2023/03/28 07:47:23;;;;;;;23.20;10.02;;;;;;;-0.03;93.04;100361.03;10510610;28;20051;-79
2023/03/28 07:52:25;;;;;;;24.00;10.48;;;;;;;0.11;92.70;100359.91;10510289;28;20044;-80
2023/03/28 07:57:27;;;;;;;23.40;10.90;;;;;;;0.09;92.77;100356.59;10510536;28;20056;-78
2023/03/28 08:02:36;;;;;;;21.63;10.88;;;;;;;0.11;93.04;100361.75;10490018;28;20047;-80
2023/03/28 08:07:40;;;;;;;20.77;11.48;;;;;;;0.16;92.91;100370.03;10499600;28;20257;-80
2023/03/28 08:12:43;;;;;;;22.83;10.70;;;;;;;0.18;92.58;100379.56;10477206;28;20036;-80
2023/03/28 08:17:48;;;;;;;21.92;11.60;;;;;;;0.29;92.21;100381.53;10520593;28;20044;-79
2023/03/28 08:22:54;;;;;;;;;;;;;;;0.38;92.19;100384.81;10535826;28;20504;-80
2023/03/28 08:28:25;;;;;;;27.17;12.57;;;;;;;0.55;91.70;100390.47;10527477;28;20287;-80
2023/03/28 08:33:31;;;;;;;24.60;11.57;;;;;;;0.67;91.56;100396.78;10511691;28;20048;-79
2023/03/28 08:38:35;;;;;;;25.63;12.02;;;;;;;0.94;90.29;100386.53;10505692;28;20051;-79
2023/03/28 08:43:52;;;;;;;26.27;11.40;;;;;;;1.20;89.12;100385.41;10506693;28;20048;-80
2023/03/28 08:48:55;;;;;;;27.10;12.05;;;;;;;1.28;87.09;100378.88;10525712;28;20488;-79
2023/03/28 08:54:04;;;;;;;31.45;12.90;;;;;;;1.27;86.34;100382.66;10525581;28;20052;-79
2023/03/28 08:59:11;;;;;;;25.95;12.40;;;;;;;1.46;84.46;100382.38;10476902;28;20044;-80
2023/03/28 09:04:24;;;;;;;23.55;12.55;;;;;;;1.56;82.57;100383.72;10479464;28;20055;-80
2023/03/28 09:09:52;;;;;;;24.90;12.02;;;;;;;1.62;82.49;100380.13;10511383;28;20049;-80
2023/03/28 09:15:26;;;;;;;27.77;12.25;;;;;;;1.72;80.53;100369.56;10517269;28;20044;-79
2023/03/28 09:20:36;;;;;;;23.25;12.52;;;;;;;1.77;79.73;100369.72;10516332;28;20048;-80
2023/03/28 09:26:02;;;;;;;25.10;13.82;;;;;;;1.76;78.85;100370.78;10517021;28;20044;-80
2023/03/28 09:31:11;;;;;;;27.50;15.07;;;;;;;1.66;79.53;100386.72;10500653;28;20045;-79
2023/03/28 09:36:19;;;;;;;29.75;14.50;;;;;;;1.59;79.80;100386.81;10432238;28;20056;-79
2023/03/28 09:41:28;;;;;;;28.05;15.57;;;;;;;1.61;80.26;100394.69;10432550;28;20489;-80
2023/03/28 09:46:50;;;;;;;23.70;12.50;;;;;;;1.77;80.46;100389.47;10463451;28;20049;-79
2023/03/28 09:52:15;;;;;;;23.67;10.95;;;;;;;1.87;80.16;100391.59;10473842;28;20458;-78
2023/03/28 09:57:25;;;;;;;15.57;8.20;;;;;;;1.91;79.34;100398.22;10533091;28;20040;-79
2023/03/28 10:02:36;;;;;;;11.65;6.60;;;;;;;1.89;78.88;100408.44;10536071;28;20434;-80
2023/03/28 10:07:46;;;;;;;8.75;5.38;;;;;;;1.95;78.35;100401.28;10565422;28;20052;-80
2023/03/28 10:13:05;;;;;;;8.50;5.28;;;;;;;2.08;78.15;100407.34;10560332;28;20040;-80
2023/03/28 10:18:16;;;;;;;7.82;4.80;;;;;;;1.99;77.30;100403.31;10525402;28;20050;-80
2023/03/28 10:23:21;;;;;;;6.70;4.50;;;;;;;1.99;77.71;100397.88;10519776;28;20442;-79
2023/03/28 10:28:30;;;;;;;7.57;4.53;;;;;;;2.05;77.50;100396.97;10498412;28;20035;-81
2023/03/28 10:33:45;;;;;;;5.78;3.75;;;;;;;1.95;77.53;100382.34;10534265;28;20036;-79
2023/03/28 10:39:27;;;;;;;6.45;3.90;;;;;;;1.92;77.45;100386.34;10519799;28;20059;-79
2023/03/28 10:45:00;;;;;;;6.43;3.85;;;;;;;1.92;77.51;100390.94;10530279;28;20040;-79
2023/03/28 10:50:21;;;;;;;4.25;3.30;;;;;;;1.85;77.03;100390.19;10529277;28;20052;-80
2023/03/28 10:55:37;;;;;;;5.07;3.22;;;;;;;1.81;76.64;100379.00;10512714;28;20044;-79
2023/03/28 11:01:11;;;;;;;4.00;2.90;;;;;;;1.54;76.15;100367.72;10509489;28;20051;-79
2023/03/28 11:06:28;;;;;;;6.25;3.00;;;;;;;1.50;77.67;100364.66;10508872;28;20040;-79
2023/03/28 11:11:39;;;;;;;11.90;3.95;;;;;;;1.50;76.84;100361.13;10511051;28;20044;-79
2023/03/28 11:16:58;;;;;;;5.90;3.10;;;;;;;1.26;77.51;100371.00;10512342;28;20412;-79
2023/03/28 11:22:39;;;;;;;6.70;3.25;;;;;;;1.26;77.85;100373.72;10503156;28;20044;-79
2023/03/28 11:28:07;;;;;;;5.38;3.35;;;;;;;1.22;77.90;100377.09;10528644;28;20036;-79
2023/03/28 11:33:48;;;;;;;6.18;3.80;;;;;;;1.20;78.74;100377.31;10495480;28;20047;-78
2023/03/28 11:39:04;;;;;;;7.07;4.05;;;;;;;1.14;78.68;100359.31;10447721;28;20056;-84
2023/03/28 11:44:26;;;;;;;5.80;4.15;;;;;;;1.12;78.40;100353.28;10490331;28;20067;-80
2023/03/28 11:49:41;;;;;;;9.43;5.15;;;;;;;1.21;79.00;100360.03;10508824;28;20040;-78
2023/03/28 11:55:23;;;;;;;8.88;5.32;;;;;;;1.18;79.50;100360.50;10495222;28;20044;-79
2023/03/28 12:00:42;;;;;;;8.90;5.88;;;;;;;1.20;79.41;100356.50;10499417;28;20729;-78
2023/03/28 12:06:03;;;;;;;9.77;5.70;;;;;;;1.22;79.65;100358.19;10479617;28;20512;-78
2023/03/28 12:11:11;;;;;;;13.60;8.10;;;;;;;1.29;79.79;100348.94;10485505;28;20500;-79
2023/03/28 12:16:46;;;;;;;18.67;8.10;;;;;;;1.55;80.51;100346.91;10502428;28;20044;-80
2023/03/28 12:22:20;;;;;;;12.10;7.60;;;;;;;1.57;79.67;100342.94;10494792;28;20472;-81
2023/03/28 12:27:43;;;;;;;22.58;9.40;;;;;;;1.54;79.56;100346.09;10507916;28;20048;-81
2023/03/28 12:33:39;;;;;;;18.50;9.63;;;;;;;1.49;80.63;100341.38;10477154;28;20055;-81
2023/03/28 12:39:35;;;;;;;32.47;10.73;;;;;;;1.56;80.44;100325.03;10476929;28;20048;-80
2023/03/28 12:45:14;;;;;;;16.50;8.30;;;;;;;1.77;81.03;100321.03;10495169;28;20094;-81
2023/03/28 12:50:25;;;;;;;21.92;9.30;;;;;;;1.66;80.64;100310.97;10490299;28;20045;-80
2023/03/28 12:55:30;;;;;;;15.30;8.27;;;;;;;1.71;81.22;100303.81;10489436;28;20504;-80
2023/03/28 13:01:06;;;;;;;21.42;7.80;;;;;;;1.79;80.07;100308.91;10505880;28;20503;-79
2023/03/28 13:06:26;;;;;;;10.77;4.82;;;;;;;1.55;78.54;100314.47;10513499;28;20216;-84
2023/03/28 13:11:38;;;;;;;6.80;4.35;;;;;;;1.37;78.08;100316.16;10525008;28;20048;-81
2023/03/28 13:17:20;;;;;;;5.60;3.70;;;;;;;1.39;78.05;100313.22;10564361;28;20090;-80
2023/03/28 13:22:30;;;;;;;6.47;4.95;;;;;;;1.29;78.65;100308.38;10537106;28;20055;-78
2023/03/28 13:27:33;;;;;;;7.47;4.18;;;;;;;1.22;80.04;100307.66;10526485;28;20435;-82
2023/03/28 13:32:43;;;;;;;9.73;4.30;;;;;;;1.14;81.66;100297.97;10564230;28;20036;-83
2023/03/28 13:37:46;;;;;;;10.02;3.40;;;;;;;0.93;83.67;100294.94;10493575;28;20056;-81
2023/03/28 13:42:59;;;;;;;12.90;4.28;;;;;;;0.79;85.50;100307.75;10554828;28;20048;-82
2023/03/28 13:48:02;;;;;;;13.48;4.28;;;;;;;0.63;87.46;100301.06;10509246;28;20124;-81
2023/03/28 13:53:04;;;;;;;16.70;4.57;;;;;;;0.51;88.48;100300.16;10519409;28;20048;-82
2023/03/28 13:58:10;;;;;;;17.85;4.72;;;;;;;0.34;89.50;100308.00;10530509;28;20048;-81
2023/03/28 14:03:40;;;;;;;9.38;4.03;;;;;;;0.28;90.40;100293.53;10519815;28;20492;-81
2023/03/28 14:08:46;;;;;;;6.80;3.85;;;;;;;0.30;90.55;100302.22;10500386;28;20064;-81
2023/03/28 14:14:00;;;;;;;5.38;3.40;;;;;;;0.21;91.66;100287.38;10490553;28;20051;-81
2023/03/28 14:19:03;;;;;;;3.40;2.30;;;;;;;0.20;91.87;100288.44;10521579;28;20029;-81
2023/03/28 14:24:06;;;;;;;3.45;2.47;;;;;;;0.16;91.21;100284.50;10490760;28;20511;-81
2023/03/28 14:29:16;;;;;;;5.07;2.80;;;;;;;0.10;91.43;100271.09;10499958;28;20044;-83
2023/03/28 14:34:24;;;;;;;3.60;2.53;;;;;;;0.19;92.10;100272.47;10516386;28;20048;-82
2023/03/28 14:39:29;;;;;;;3.40;2.60;;;;;;;0.22;92.43;100263.94;10515143;28;20047;-82
2023/03/28 14:44:36;;;;;;;3.05;2.55;;;;;;;0.04;93.17;100270.13;10491451;28;20127;-83
2023/03/28 14:49:39;;;;;;;3.80;1.92;;;;;;;-0.02;93.76;100266.41;10491247;28;20412;-83
2023/03/28 14:54:46;;;;;;;2.38;1.95;;;;;;;-0.03;94.16;100261.25;10509147;28;20033;-82
2023/03/28 14:59:48;;;;;;;6.43;2.47;;;;;;;-0.14;94.54;100260.09;10479169;28;20040;-83
2023/03/28 15:04:51;;;;;;;5.00;2.33;;;;;;;-0.18;94.68;100256.19;10517522;28;20040;-83
2023/03/28 15:10:21;;;;;;;2.50;2.17;;;;;;;-0.16;94.75;100250.59;10447423;28;20043;-81
2023/03/28 15:15:27;;;;;;;3.35;2.50;;;;;;;-0.16;95.39;100253.28;10501272;28;20045;-81
2023/03/28 15:20:34;;;;;;;3.72;2.33;;;;;;;-0.21;95.72;100245.00;10488812;28;20056;-83
2023/03/28 15:25:36;;;;;;;4.57;2.10;;;;;;;-0.25;96.01;100250.03;10476081;28;20044;-80
2023/03/28 15:30:44;;;;;;;3.25;2.17;;;;;;;-0.29;96.09;100248.81;10507752;28;20036;-80
2023/03/28 15:35:47;;;;;;;3.92;2.45;;;;;;;-0.27;96.22;100237.81;10473952;28;20057;-81
2023/03/28 15:40:51;;;;;;;3.67;2.42;;;;;;;-0.26;97.14;100234.91;10473442;28;20047;-81
2023/03/28 15:45:57;;;;;;;3.50;2.88;;;;;;;-0.21;97.27;100226.13;10474810;28;20044;-82
2023/03/28 15:51:03;;;;;;;3.67;3.13;;;;;;;-0.25;97.98;100223.06;10485002;28;20060;-79
2023/03/28 15:56:10;;;;;;;4.18;3.40;;;;;;;-0.23;97.97;100222.84;10487451;28;20056;-79
2023/03/28 16:01:28;;;;;;;6.47;3.45;;;;;;;-0.21;98.45;100218.06;10519049;28;20059;-79
2023/03/28 16:06:40;;;;;;;4.20;2.97;;;;;;;-0.26;98.67;100220.59;10493358;28;20246;-80
2023/03/28 16:11:43;;;;;;;4.97;3.20;;;;;;;-0.28;99.03;100218.13;10506706;28;20040;-80
2023/03/28 16:17:06;;;;;;;4.43;3.10;;;;;;;-0.28;98.88;100201.94;10518552;28;20040;-80
2023/03/28 16:22:15;;;;;;;4.00;2.63;;;;;;;-0.32;99.58;100192.66;10496040;28;20420;-80
2023/03/28 16:27:18;;;;;;;5.05;2.03;;;;;;;-0.38;99.47;100191.66;10506061;28;20052;-80
2023/03/28 16:32:22;;;;;;;2.45;1.80;;;;;;;-0.38;99.30;100183.56;10482344;28;20048;-79
2023/03/28 16:37:24;;;;;;;3.83;1.75;;;;;;;-0.38;99.49;100185.44;10497762;28;20135;-79
2023/03/28 16:42:29;;;;;;;1.58;1.25;;;;;;;-0.39;99.96;100190.00;10503791;28;20052;-80
2023/03/28 16:47:31;;;;;;;3.28;1.70;;;;;;;-0.42;99.69;100166.19;10533794;28;20044;-79
2023/03/28 16:52:37;;;;;;;3.50;1.33;;;;;;;-0.39;99.62;100168.44;10514918;28;20048;-79
2023/03/28 16:57:40;;;;;;;2.40;1.30;;;;;;;-0.44;99.58;100170.97;10499262;28;20033;-79
2023/03/28 17:02:44;;;;;;;1.38;1.10;;;;;;;-0.44;99.64;100159.38;10513105;28;20041;-79
2023/03/28 17:07:46;;;;;;;1.77;1.08;;;;;;;-0.44;100.00;100159.38;10530436;28;20523;-79
2023/03/28 17:12:51;;;;;;;0.93;0.82;;;;;;;-0.46;99.83;100154.19;10506073;28;20055;-80
2023/03/28 17:17:53;;;;;;;2.22;1.00;;;;;;;-0.44;99.77;100153.97;10532364;28;23231;-78
2023/03/28 17:22:55;;;;;;;1.83;0.90;;;;;;;-0.42;100.00;100149.19;10513220;28;20544;-80
2023/03/28 17:27:57;;;;;;;2.50;1.10;;;;;;;-0.43;100.00;100150.22;10531042;28;20040;-80
2023/03/28 17:32:59;;;;;;;1.95;1.30;;;;;;;-0.42;100.00;100147.31;10525665;28;20049;-80
2023/03/28 17:38:02;;;;;;;2.65;1.40;;;;;;;-0.39;100.00;100140.66;10496027;28;20206;-80
2023/03/28 17:43:04;;;;;;;2.08;1.10;;;;;;;-0.37;100.00;100136.69;10525732;28;20044;-80
2023/03/28 17:48:07;;;;;;;2.38;1.40;;;;;;;-0.34;100.00;100138.97;10532855;28;20048;-80
2023/03/28 17:53:09;;;;;;;2.28;1.63;;;;;;;-0.33;100.00;100132.53;10530071;28;20051;-81
2023/03/28 17:58:11;;;;;;;1.58;1.30;;;;;;;-0.29;100.00;100134.78;10530299;28;20079;-80
2023/03/28 18:03:14;;;;;;;3.08;1.60;;;;;;;-0.26;100.00;100134.31;10487025;28;20143;-81
2023/03/28 18:08:36;;;;;;;2.33;1.45;;;;;;;-0.25;100.00;100125.19;10481130;28;20045;-80
2023/03/28 18:13:39;;;;;;;2.65;1.50;;;;;;;-0.19;100.00;100122.41;10519169;28;20047;-80
2023/03/28 18:18:41;;;;;;;3.63;1.58;;;;;;;-0.17;100.00;100131.13;10507594;28;20048;-82
2023/03/28 18:23:43;;;;;;;3.00;2.03;;;;;;;-0.17;100.00;100116.81;10553683;28;20559;-80
2023/03/28 18:28:45;;;;;;;3.72;1.83;;;;;;;-0.17;100.00;100123.03;10525084;28;20036;-82
2023/03/28 18:33:47;;;;;;;2.88;1.90;;;;;;;-0.18;100.00;100109.75;10537023;28;20419;-79
2023/03/28 18:38:50;;;;;;;2.65;1.55;;;;;;;-0.17;100.00;100114.94;10520027;28;20048;-83
2023/03/28 18:43:52;;;;;;;2.13;1.60;;;;;;;-0.18;100.00;100107.06;10506340;28;20067;-81
2023/03/28 18:54:21;;;;;;;1.33;1.10;;;;;;;-0.10;100.00;100093.28;10557361;28;20043;-82
2023/03/28 18:59:24;;;;;;;1.55;1.20;;;;;;;0.16;100.00;100090.25;10516539;28;20530;-82
2023/03/28 19:04:27;;;;;;;1.80;1.40;;;;;;;0.09;100.00;100084.13;10510315;28;20040;-80
2023/03/28 19:09:29;;;;;;;1.60;1.13;;;;;;;0.10;100.00;100088.47;10549108;28;20045;-80
2023/03/28 19:14:32;;;;;;;1.60;1.25;;;;;;;0.12;100.00;100086.38;10504346;28;20072;-80
2023/03/28 19:19:36;;;;;;;1.85;1.30;;;;;;;0.17;100.00;100089.22;10503906;28;20040;-80
2023/03/28 19:24:38;;;;;;;2.45;1.73;;;;;;;0.16;100.00;100086.75;10503187;28;20040;-79
2023/03/28 19:30:00;;;;;;;2.92;2.10;;;;;;;0.23;100.00;100085.63;10559963;28;20055;-79
2023/03/28 19:35:03;;;;;;;2.50;2.20;;;;;;;0.20;100.00;100083.38;10497746;28;20101;-82
2023/03/28 19:40:25;;;;;;;2.90;2.50;;;;;;;0.02;100.00;100083.41;10495787;28;20050;-82
2023/03/28 19:45:29;;;;;;;3.90;2.53;;;;;;;-0.10;100.00;100085.19;10552296;28;20582;-82
2023/03/28 19:50:43;;;;;;;3.72;2.40;;;;;;;-0.15;100.00;100085.06;10515625;28;20045;-82
2023/03/28 19:55:55;;;;;;;4.43;2.85;;;;;;;-0.20;100.00;100085.72;10493791;28;20040;-82
2023/03/28 20:00:58;;;;;;;3.25;2.30;;;;;;;-0.27;100.00;100076.06;10483547;28;20055;-81
2023/03/28 20:06:05;;;;;;;4.75;2.45;;;;;;;-0.30;100.00;100082.72;10472878;28;20041;-80
2023/03/28 20:11:10;;;;;;;3.88;2.17;;;;;;;-0.29;100.00;100084.38;10475942;28;20412;-81
2023/03/28 20:16:13;;;;;;;4.22;2.42;;;;;;;-0.31;100.00;100078.38;10436984;28;20217;-80
2023/03/28 20:21:15;;;;;;;3.03;1.80;;;;;;;-0.30;100.00;100077.34;10494926;28;20044;-80
2023/03/28 20:26:24;;;;;;;3.83;2.10;;;;;;;-0.29;100.00;100076.28;10518903;28;20043;-80
2023/03/28 20:31:27;;;;;;;3.38;1.75;;;;;;;-0.25;100.00;100076.66;10480026;28;20040;-80
2023/03/28 20:36:32;;;;;;;3.13;1.60;;;;;;;-0.30;100.00;100074.63;10474334;28;20384;-80
2023/03/28 20:41:34;;;;;;;1.88;1.30;;;;;;;-0.29;100.00;100078.16;10471701;28;20119;-81
2023/03/28 20:46:37;;;;;;;2.25;1.65;;;;;;;-0.37;100.00;100072.00;10512125;28;20044;-81
2023/03/28 20:51:39;;;;;;;1.83;1.20;;;;;;;-0.42;100.00;100077.25;10524583;28;20419;-80
2023/03/28 20:56:42;;;;;;;1.20;0.90;;;;;;;-0.41;100.00;100081.56;10545689;28;20047;-83
2023/03/28 21:01:46;;;;;;;1.02;0.88;;;;;;;-0.50;100.00;100085.63;10532403;28;20041;-81
2023/03/28 21:06:48;;;;;;;1.55;0.77;;;;;;;-0.55;100.00;100082.75;10559483;28;20040;-80
2023/03/28 21:11:54;;;;;;;1.50;0.82;;;;;;;-0.57;100.00;100079.47;10539306;28;20036;-81
2023/03/28 21:17:06;;;;;;;1.13;0.85;;;;;;;-0.67;100.00;100071.91;10529078;28;20040;-80
2023/03/28 21:22:15;;;;;;;0.80;0.70;;;;;;;-0.70;100.00;100074.19;10505631;28;20038;-84
2023/03/28 21:27:18;;;;;;;1.02;0.70;;;;;;;-0.72;100.00;100078.97;10462752;28;20048;-81
2023/03/28 21:32:20;;;;;;;0.60;0.60;;;;;;;-0.73;100.00;100085.41;10494376;28;20051;-81
2023/03/28 21:37:22;;;;;;;1.17;0.70;;;;;;;-0.75;100.00;100084.81;10504505;28;20032;-80
2023/03/28 21:42:33;;;;;;;0.80;0.80;;;;;;;-0.82;100.00;100073.28;10510764;28;20079;-81
2023/03/28 21:47:40;;;;;;;0.85;0.65;;;;;;;-0.83;100.00;100075.16;10526462;28;20044;-80
2023/03/28 21:52:43;;;;;;;5.03;3.22;;;;;;;-0.86;100.00;100083.69;10504776;28;20051;-79
2023/03/28 21:57:48;;;;;;;0.88;0.85;;;;;;;-0.95;100.00;100083.13;10491271;28;20499;-80
2023/03/28 22:02:55;;;;;;;0.70;0.70;;;;;;;-0.96;100.00;100089.53;10535131;28;20032;-81
2023/03/28 22:07:57;;;;;;;1.50;0.75;;;;;;;-0.97;100.00;100089.78;10505955;28;20040;-83
2023/03/28 22:13:05;;;;;;;0.60;0.60;;;;;;;-1.01;100.00;100092.09;10523117;28;20037;-82
2023/03/28 22:18:08;;;;;;;0.80;0.70;;;;;;;-1.01;100.00;100084.00;10548436;28;20044;-81
2023/03/28 22:23:10;;;;;;;0.50;0.50;;;;;;;-1.05;100.00;100090.84;10532737;28;20041;-81
2023/03/28 22:28:13;;;;;;;1.00;0.70;;;;;;;-1.08;100.00;100093.97;10540544;28;20040;-79
2023/03/28 22:33:18;;;;;;;0.75;0.75;;;;;;;-1.02;100.00;100090.44;10537350;28;20055;-79
2023/03/28 22:38:20;;;;;;;1.42;0.93;;;;;;;-0.98;100.00;100096.19;10546730;28;20051;-80
2023/03/28 22:43:27;;;;;;;1.42;1.10;;;;;;;-1.02;100.00;100097.69;10531923;28;20056;-78
2023/03/28 22:48:30;;;;;;;1.02;0.93;;;;;;;-1.02;100.00;100095.00;10553494;28;20048;-79
2023/03/28 22:53:33;;;;;;;1.02;0.90;;;;;;;-1.02;100.00;100097.69;10526024;28;20056;-77
2023/03/28 22:58:35;;;;;;;1.20;0.90;;;;;;;-1.07;100.00;100101.00;10515102;28;20044;-79
2023/03/28 23:03:37;;;;;;;0.80;0.80;;;;;;;-1.08;100.00;100109.31;10528399;28;20036;-79
2023/03/28 23:08:43;;;;;;;0.80;0.80;;;;;;;-1.10;100.00;100103.31;10491851;28;20052;-79
2023/03/28 23:13:47;;;;;;;1.52;0.80;;;;;;;-1.14;100.00;100102.94;10526893;28;20423;-79
2023/03/28 23:18:50;;;;;;;0.95;0.80;;;;;;;-1.12;100.00;100114.31;10494789;28;20049;-79
2023/03/28 23:23:52;;;;;;;0.70;0.70;;;;;;;-1.15;100.00;100111.25;10529010;28;20040;-79
2023/03/28 23:28:54;;;;;;;0.65;0.65;;;;;;;-1.19;100.00;100112.72;10527629;28;20144;-79
2023/03/28 23:33:56;;;;;;;0.60;0.60;;;;;;;-1.21;100.00;100112.94;10528584;28;20045;-78
2023/03/28 23:39:01;;;;;;;0.60;0.60;;;;;;;-1.16;100.00;100123.06;10524883;28;20045;-78
2023/03/28 23:44:07;;;;;;;0.57;0.57;;;;;;;-1.18;100.00;100130.53;10528525;28;20047;-78